Time;durP1;ratioP1;P1;durP2;ratioP2;P2;SDS_P1;SDS_P2;PMS_P1;PMS_P2;Temp;Humidity;BMP_temperature;BMP_pressure;BME280_temperature;BME280_humidity;BME280_pressure;Samples;Min_cycle;Max_cycle;Signal;HPM_P1;HPM_P2
2021/06/01 00:00:15;;;;;;;10.50;6.73;;;12.20;78.00;;;;;;5019452;28;20177;-93
2021/06/01 00:02:40;;;;;;;9.97;5.83;;;12.20;78.00;;;;;;5019174;28;20688;-94
2021/06/01 00:05:08;;;;;;;7.10;5.87;;;12.10;78.30;;;;;;5019094;28;20201;-93
2021/06/01 00:07:34;;;;;;;7.90;5.70;;;12.00;78.90;;;;;;5037016;28;20257;-93
2021/06/01 00:10:00;;;;;;;6.60;5.67;;;12.00;79.40;;;;;;5020570;28;20669;-94
2021/06/01 00:12:25;;;;;;;7.77;5.60;;;11.90;80.30;;;;;;5021200;28;20189;-94
2021/06/01 00:14:51;;;;;;;9.63;6.60;;;11.90;80.80;;;;;;5021534;28;20205;-94
2021/06/01 00:17:17;;;;;;;8.30;6.37;;;11.90;81.10;;;;;;5022185;28;20185;-93
2021/06/01 00:19:43;;;;;;;8.40;6.20;;;11.80;81.40;;;;;;5020841;28;20331;-94
2021/06/01 00:22:09;;;;;;;10.60;6.73;;;11.70;81.50;;;;;;5022472;28;20145;-94
2021/06/01 00:24:34;;;;;;;7.30;6.10;;;11.40;82.00;;;;;;5020128;28;20209;-94
2021/06/01 00:27:01;;;;;;;9.23;6.33;;;11.30;82.20;;;;;;5020371;28;20200;-94
2021/06/01 00:29:27;;;;;;;12.47;7.23;;;11.30;82.20;;;;;;5021794;28;20243;-94
2021/06/01 00:31:53;;;;;;;10.47;6.33;;;11.30;81.80;;;;;;5020154;28;20193;-93
2021/06/01 00:34:18;;;;;;;6.90;6.30;;;11.40;82.00;;;;;;5022205;28;20231;-94
2021/06/01 00:36:45;;;;;;;7.03;6.03;;;11.30;82.00;;;;;;5040060;28;20170;-94
2021/06/01 00:39:10;;;;;;;8.03;6.30;;;11.30;81.70;;;;;;5022385;28;20220;-94
2021/06/01 00:41:36;;;;;;;6.77;6.07;;;11.30;81.30;;;;;;5021783;28;20186;-94
2021/06/01 00:44:02;;;;;;;6.80;6.13;;;11.30;80.80;;;;;;5023065;28;20186;-94
2021/06/01 00:46:29;;;;;;;7.43;5.77;;;11.30;80.30;;;;;;5024841;28;20248;-94
2021/06/01 00:48:54;;;;;;;8.57;6.63;;;11.30;79.90;;;;;;5025664;28;20189;-94
2021/06/01 00:51:20;;;;;;;6.63;5.83;;;11.30;79.40;;;;;;5027231;28;20189;-94
2021/06/01 00:53:46;;;;;;;7.93;6.80;;;11.30;79.30;;;;;;5026230;28;20189;-95
2021/06/01 00:56:12;;;;;;;11.33;7.20;;;11.30;79.20;;;;;;5026920;28;20209;-94
2021/06/01 00:58:38;;;;;;;10.50;7.10;;;11.20;79.00;;;;;;5026253;28;20258;-94
2021/06/01 01:03:38;;;;;;;9.23;7.37;;;11.20;78.60;;;;;;5043894;28;20201;-95
2021/06/01 01:06:36;;;;;;;10.50;8.10;;;11.20;78.70;;;;;;5026186;28;20299;-94
2021/06/01 01:09:08;;;;;;;8.27;7.37;;;11.10;78.80;;;;;;5001578;28;20684;-94
2021/06/01 01:11:43;;;;;;;8.20;7.20;;;11.10;78.90;;;;;;5026540;28;20174;-94
2021/06/01 01:14:17;;;;;;;8.73;7.83;;;11.20;78.80;;;;;;5028990;28;20173;-94
2021/06/01 01:16:50;;;;;;;9.53;7.17;;;11.20;78.80;;;;;;5025714;28;20224;-94
2021/06/01 01:19:31;;;;;;;10.03;7.50;;;11.10;79.60;;;;;;5026936;28;20243;-94
2021/06/01 01:21:57;;;;;;;10.03;7.87;;;10.90;80.40;;;;;;5025137;28;20271;-94
2021/06/01 01:24:41;;;;;;;10.93;7.83;;;10.80;81.00;;;;;;5026945;28;20188;-94
2021/06/01 01:27:10;;;;;;;10.80;7.63;;;10.70;81.30;;;;;;5026121;28;20243;-94
2021/06/01 01:29:44;;;;;;;9.50;7.47;;;10.70;81.40;;;;;;5025029;28;20189;-94
2021/06/01 01:32:40;;;;;;;12.57;8.30;;;10.70;81.10;;;;;;5026330;28;20209;-94
2021/06/01 01:35:08;;;;;;;12.73;7.50;;;10.70;80.60;;;;;;5029457;28;20251;-94
2021/06/01 01:37:36;;;;;;;9.83;7.33;;;10.70;80.20;;;;;;5028579;28;20192;-95
2021/06/01 01:40:03;;;;;;;11.37;7.43;;;10.70;80.10;;;;;;5023843;28;20181;-94
2021/06/01 01:42:44;;;;;;;8.47;7.10;;;10.70;80.00;;;;;;5022870;28;20185;-94
2021/06/01 01:45:27;;;;;;;8.37;7.47;;;10.60;79.90;;;;;;5043593;28;20197;-94
2021/06/01 01:50:47;;;;;;;8.70;6.57;;;10.50;80.00;;;;;;5047338;28;20176;-94
2021/06/01 01:53:17;;;;;;;7.53;6.70;;;10.50;79.80;;;;;;5027942;28;20189;-94
2021/06/01 01:55:46;;;;;;;9.97;7.07;;;10.50;79.60;;;;;;5027699;28;20220;-95
2021/06/01 01:58:14;;;;;;;9.93;7.23;;;10.50;79.40;;;;;;5026973;28;20216;-95
2021/06/01 02:00:41;;;;;;;10.97;8.80;;;10.50;79.30;;;;;;5025722;28;20185;-94
2021/06/01 02:03:08;;;;;;;11.73;8.60;;;10.50;79.30;;;;;;5023867;28;20185;-94
2021/06/01 02:05:38;;;;;;;15.93;8.40;;;10.50;79.40;;;;;;5025152;28;20205;-95
2021/06/01 02:08:03;;;;;;;12.23;9.00;;;10.50;79.50;;;;;;5025521;28;20197;-94
2021/06/01 02:10:29;;;;;;;10.63;9.13;;;10.60;79.70;;;;;;5024632;28;20756;-94
2021/06/01 02:12:55;;;;;;;11.43;10.00;;;10.60;80.00;;;;;;5026164;28;20242;-94
2021/06/01 02:15:21;;;;;;;15.50;10.43;;;10.60;80.80;;;;;;5026330;28;20209;-94
2021/06/01 02:17:47;;;;;;;15.57;9.80;;;10.60;81.40;;;;;;5028572;28;20213;-94
2021/06/01 02:20:15;;;;;;;12.47;9.33;;;10.50;82.80;;;;;;5030910;28;20184;-94
2021/06/01 02:26:03;;;;;;;16.50;9.87;;;10.50;82.00;;;;;;5044148;28;20216;-94
2021/06/01 02:28:34;;;;;;;11.87;9.80;;;10.50;82.10;;;;;;5027776;28;20184;-94
2021/06/01 02:31:06;;;;;;;10.60;9.47;;;10.50;82.90;;;;;;5024945;28;20178;-94
2021/06/01 02:33:35;;;;;;;9.43;7.97;;;10.60;82.50;;;;;;5025597;28;20189;-93
2021/06/01 02:36:02;;;;;;;9.80;7.93;;;10.60;81.80;;;;;;5024677;28;20234;-94
2021/06/01 02:38:34;;;;;;;12.97;8.00;;;10.50;81.40;;;;;;5025520;28;20216;-94
2021/06/01 02:41:04;;;;;;;8.03;7.23;;;10.50;81.20;;;;;;5024568;28;20180;-94
2021/06/01 02:43:31;;;;;;;8.20;7.40;;;10.40;81.00;;;;;;5025883;28;20177;-94
2021/06/01 02:45:57;;;;;;;9.33;7.90;;;10.30;81.30;;;;;;5021187;28;20201;-94
2021/06/01 02:48:24;;;;;;;10.57;8.10;;;10.30;81.50;;;;;;5024289;28;20551;-94
2021/06/01 02:50:53;;;;;;;10.67;7.53;;;10.30;81.40;;;;;;5044809;28;20249;-94
2021/06/01 02:53:21;;;;;;;8.13;7.10;;;10.30;81.40;;;;;;5029148;28;20539;-94
2021/06/01 02:55:47;;;;;;;9.30;8.03;;;10.30;81.40;;;;;;5027523;28;20211;-94
2021/06/01 02:58:14;;;;;;;8.53;7.07;;;10.30;81.20;;;;;;5027816;28;20213;-94
2021/06/01 03:00:42;;;;;;;9.73;7.23;;;10.20;81.00;;;;;;5026687;28;20234;-94
2021/06/01 03:03:11;;;;;;;11.17;8.27;;;10.20;80.90;;;;;;5024244;28;20180;-94
2021/06/01 03:05:36;;;;;;;8.80;7.67;;;10.20;80.80;;;;;;5027297;28;20589;-94
2021/06/01 03:08:25;;;;;;;9.40;7.80;;;10.10;80.70;;;;;;5023217;28;20280;-94
2021/06/01 03:10:51;;;;;;;9.50;7.20;;;10.10;80.90;;;;;;5026757;28;20183;-94
2021/06/01 03:13:17;;;;;;;12.30;8.33;;;10.20;80.80;;;;;;5029628;28;20196;-94
2021/06/01 03:15:43;;;;;;;10.77;9.00;;;10.20;80.80;;;;;;5032660;28;20213;-95
2021/06/01 03:18:08;;;;;;;15.27;9.07;;;10.10;81.00;;;;;;5029508;28;20647;-94
2021/06/01 03:20:34;;;;;;;11.37;9.03;;;10.10;81.10;;;;;;5030008;28;20185;-94
2021/06/01 03:23:00;;;;;;;11.33;9.43;;;10.00;81.20;;;;;;5028595;28;20188;-94
2021/06/01 03:25:25;;;;;;;12.30;9.83;;;10.00;81.30;;;;;;5023887;28;20212;-94
2021/06/01 03:27:51;;;;;;;15.33;11.27;;;10.00;81.40;;;;;;5025995;28;20193;-94
2021/06/01 03:30:17;;;;;;;11.93;9.97;;;10.10;81.90;;;;;;5028758;28;20228;-94
2021/06/01 03:32:43;;;;;;;12.03;10.23;;;10.10;82.30;;;;;;5030605;28;20189;-95
2021/06/01 03:35:09;;;;;;;15.27;10.10;;;10.20;82.60;;;;;;5024977;28;20236;-94
2021/06/01 03:37:35;;;;;;;12.13;9.90;;;10.20;82.50;;;;;;5026041;28;20190;-94
2021/06/01 03:40:01;;;;;;;12.57;9.33;;;10.30;82.50;;;;;;5029658;28;20185;-94
2021/06/01 03:42:26;;;;;;;10.57;9.47;;;10.30;82.60;;;;;;5026162;28;20178;-94
2021/06/01 03:44:52;;;;;;;11.43;9.37;;;10.20;82.70;;;;;;5026343;28;20201;-94
2021/06/01 03:47:17;;;;;;;11.37;10.13;;;10.30;83.40;;;;;;5028982;28;20181;-94
2021/06/01 03:49:43;;;;;;;13.60;11.43;;;10.30;83.70;;;;;;5026918;28;20193;-94
2021/06/01 03:52:09;;;;;;;14.53;11.13;;;10.20;85.40;;;;;;5028951;28;20193;-94
2021/06/01 03:54:39;;;;;;;16.07;12.67;;;10.20;87.20;;;;;;5044991;28;20205;-94
2021/06/01 03:57:06;;;;;;;13.17;10.53;;;10.30;87.20;;;;;;5028717;28;20316;-94
2021/06/01 03:59:32;;;;;;;10.07;7.73;;;10.30;88.00;;;;;;5027727;28;20220;-94
2021/06/01 04:01:58;;;;;;;12.17;10.57;;;10.40;88.70;;;;;;5031599;28;20186;-94
2021/06/01 04:04:23;;;;;;;12.77;11.33;;;10.40;89.20;;;;;;5030392;28;20207;-94
2021/06/01 04:06:49;;;;;;;20.50;12.87;;;10.50;89.30;;;;;;5031414;28;20169;-94
2021/06/01 04:09:15;;;;;;;16.80;12.93;;;10.60;89.30;;;;;;5031890;28;20550;-94
2021/06/01 04:11:41;;;;;;;16.63;12.57;;;10.80;88.70;;;;;;5031805;28;20189;-95
2021/06/01 04:14:06;;;;;;;16.60;12.37;;;10.80;88.40;;;;;;5032089;28;20185;-94
2021/06/01 04:16:32;;;;;;;18.13;12.47;;;10.80;87.90;;;;;;5034727;28;20213;-94
2021/06/01 04:18:58;;;;;;;17.00;11.57;;;11.00;87.40;;;;;;5033170;28;20236;-95
2021/06/01 04:21:23;;;;;;;19.57;12.60;;;11.10;87.00;;;;;;5035016;28;20216;-95
2021/06/01 04:23:49;;;;;;;14.60;11.60;;;11.20;86.30;;;;;;5036782;28;20182;-95
2021/06/01 04:26:15;;;;;;;15.83;11.57;;;11.40;85.70;;;;;;5037405;28;20217;-94
2021/06/01 04:28:41;;;;;;;12.57;10.50;;;11.50;85.40;;;;;;5036306;28;20221;-95
2021/06/01 04:31:07;;;;;;;14.27;10.33;;;11.50;84.90;;;;;;5032017;28;20215;-94
2021/06/01 04:33:33;;;;;;;13.20;10.33;;;11.60;85.70;;;;;;5036962;28;20189;-94
2021/06/01 04:35:59;;;;;;;18.80;10.03;;;11.60;87.10;;;;;;5034513;28;20292;-95
2021/06/01 04:38:25;;;;;;;11.10;9.90;;;11.40;87.50;;;;;;5035563;28;20280;-94
2021/06/01 04:40:51;;;;;;;16.63;11.50;;;11.30;87.80;;;;;;5034584;28;20192;-95
2021/06/01 04:43:17;;;;;;;14.63;11.33;;;11.30;88.20;;;;;;5035191;28;20185;-95
2021/06/01 04:45:43;;;;;;;18.63;11.20;;;11.30;88.30;;;;;;5036249;28;20215;-95
2021/06/01 04:48:09;;;;;;;15.83;12.33;;;11.40;88.50;;;;;;5036370;28;20190;-95
2021/06/01 04:50:35;;;;;;;15.53;11.77;;;11.50;88.50;;;;;;5033985;28;20189;-94
2021/06/01 04:53:01;;;;;;;13.10;10.77;;;11.60;88.50;;;;;;5035129;28;20186;-95
2021/06/01 04:55:26;;;;;;;21.87;11.90;;;11.60;88.30;;;;;;5032891;28;20255;-94
2021/06/01 04:57:52;;;;;;;16.00;11.63;;;11.70;88.40;;;;;;5031591;28;20295;-94
2021/06/01 05:00:18;;;;;;;18.23;11.73;;;11.80;88.60;;;;;;5032251;28;20243;-95
2021/06/01 05:02:44;;;;;;;15.23;11.50;;;11.80;88.60;;;;;;5032905;28;20249;-95
2021/06/01 05:05:10;;;;;;;16.40;11.90;;;11.90;88.60;;;;;;5033277;28;20213;-94
2021/06/01 05:07:36;;;;;;;17.47;13.00;;;11.90;88.20;;;;;;5036292;28;20189;-94
2021/06/01 05:10:03;;;;;;;17.63;12.37;;;11.90;88.20;;;;;;5036635;28;20189;-95
2021/06/01 05:12:30;;;;;;;17.47;12.70;;;12.00;88.20;;;;;;5054704;28;20162;-94
2021/06/01 05:14:57;;;;;;;21.10;13.27;;;12.00;88.40;;;;;;5035224;28;20229;-94
2021/06/01 05:17:23;;;;;;;17.87;12.80;;;12.20;88.50;;;;;;5056795;23;20229;-86
2021/06/01 05:19:49;;;;;;;17.10;13.33;;;12.40;88.80;;;;;;5032710;28;20178;-86
2021/06/01 05:22:16;;;;;;;17.67;13.03;;;12.40;88.00;;;;;;5015124;28;20605;-86
2021/06/01 05:24:43;;;;;;;21.33;12.23;;;12.40;88.10;;;;;;5015043;28;20185;-86
2021/06/01 05:27:09;;;;;;;17.50;12.37;;;12.50;88.10;;;;;;5014920;28;20649;-87
2021/06/01 05:29:38;;;;;;;19.73;11.93;;;12.60;88.30;;;;;;5014946;28;20252;-87
2021/06/01 05:32:27;;;;;;;19.63;12.30;;;12.70;88.30;;;;;;5014941;28;20736;-87
2021/06/01 05:34:59;;;;;;;16.27;13.30;;;12.80;88.40;;;;;;5033074;28;20176;-87
2021/06/01 05:37:33;;;;;;;14.97;13.07;;;13.00;88.30;;;;;;5018392;28;20200;-87
2021/06/01 05:39:59;;;;;;;18.07;12.40;;;13.20;87.90;;;;;;5018496;28;20173;-88
2021/06/01 05:42:25;;;;;;;17.27;12.87;;;13.30;87.20;;;;;;5018530;28;20195;-87
2021/06/01 05:44:50;;;;;;;16.90;12.30;;;13.40;87.10;;;;;;5036047;28;20176;-88
2021/06/01 05:47:17;;;;;;;17.83;12.83;;;13.50;87.20;;;;;;5035897;28;20193;-87
2021/06/01 05:49:43;;;;;;;18.40;12.10;;;13.60;87.30;;;;;;5018301;28;20254;-87
2021/06/01 05:52:09;;;;;;;14.67;12.10;;;13.70;87.30;;;;;;5036014;28;20289;-87
2021/06/01 05:54:38;;;;;;;16.67;12.33;;;13.80;87.30;;;;;;5035837;28;20181;-87
2021/06/01 05:57:05;;;;;;;12.97;11.50;;;14.00;87.20;;;;;;5035763;28;20667;-88
2021/06/01 05:59:32;;;;;;;16.53;11.77;;;14.20;86.80;;;;;;5035653;28;20197;-87
2021/06/01 06:01:57;;;;;;;22.03;12.23;;;14.30;86.30;;;;;;5018095;28;20192;-86
2021/06/01 06:04:23;;;;;;;17.67;11.90;;;14.40;86.30;;;;;;5018033;28;20190;-87
2021/06/01 06:06:49;;;;;;;15.60;11.60;;;14.50;85.60;;;;;;5035931;28;20268;-87
2021/06/01 06:09:14;;;;;;;16.57;11.33;;;14.60;84.20;;;;;;5017842;28;20240;-87
2021/06/01 06:11:40;;;;;;;16.67;11.77;;;14.70;84.30;;;;;;5035514;28;20186;-86
2021/06/01 06:14:05;;;;;;;19.23;12.10;;;14.80;84.10;;;;;;5017792;28;20190;-87
2021/06/01 06:16:41;;;;;;;14.07;11.17;;;14.90;84.50;;;;;;5017759;28;20561;-85
2021/06/01 06:19:06;;;;;;;15.57;11.77;;;15.00;83.20;;;;;;5035158;28;20331;-86
2021/06/01 06:21:33;;;;;;;15.13;9.93;;;15.00;83.10;;;;;;5017622;28;20657;-86
2021/06/01 06:23:58;;;;;;;15.50;11.00;;;15.30;83.10;;;;;;5017565;28;20193;-86
2021/06/01 06:26:25;;;;;;;13.27;10.80;;;15.50;83.00;;;;;;5035359;28;20182;-85
2021/06/01 06:28:51;;;;;;;16.20;11.60;;;15.70;81.90;;;;;;5017443;28;20204;-86
2021/06/01 06:31:17;;;;;;;13.45;11.32;;;15.80;82.20;;;;;;5017479;28;20197;-86
2021/06/01 06:33:42;;;;;;;15.53;11.70;;;15.80;82.60;;;;;;5017614;28;20198;-86
2021/06/01 06:36:08;;;;;;;17.57;12.17;;;15.80;81.90;;;;;;5017437;28;20201;-86
2021/06/01 06:38:34;;;;;;;21.37;12.40;;;15.80;82.50;;;;;;5017296;28;20598;-86
2021/06/01 06:41:12;;;;;;;16.60;11.70;;;15.70;82.70;;;;;;5017371;28;20186;-86
2021/06/01 06:43:40;;;;;;;14.18;11.68;;;15.80;83.50;;;;;;5035116;28;20216;-86
2021/06/01 06:48:51;;;;;;;14.73;10.73;;;15.90;82.50;;;;;;5035248;28;20347;-86
2021/06/01 06:51:17;;;;;;;14.95;10.80;;;15.90;81.70;;;;;;5017342;28;20189;-86
2021/06/01 06:53:51;;;;;;;13.25;10.45;;;16.00;81.60;;;;;;5017479;28;20251;-85
2021/06/01 06:56:17;;;;;;;13.15;10.35;;;16.10;81.70;;;;;;5016979;28;20177;-86
2021/06/01 06:58:43;;;;;;;15.00;11.15;;;16.20;81.80;;;;;;5034548;28;20263;-85
2021/06/01 07:01:10;;;;;;;14.40;10.77;;;16.20;81.20;;;;;;5017038;28;20650;-86
2021/06/01 07:03:36;;;;;;;12.57;10.35;;;16.50;81.20;;;;;;5034524;28;20173;-86
2021/06/01 07:06:02;;;;;;;15.80;11.15;;;16.60;80.30;;;;;;5034610;28;20228;-85
2021/06/01 07:08:28;;;;;;;15.27;10.70;;;16.80;79.50;;;;;;5034466;28;20692;-85
2021/06/01 07:10:53;;;;;;;16.33;9.85;;;16.90;78.20;;;;;;5016648;28;20609;-85
2021/06/01 07:13:24;;;;;;;13.93;10.20;;;16.90;77.30;;;;;;5034409;28;20694;-86
2021/06/01 07:15:53;;;;;;;11.45;10.25;;;16.90;76.00;;;;;;5016629;28;20193;-86
2021/06/01 07:18:18;;;;;;;10.02;7.53;;;17.00;78.30;;;;;;5016270;28;20224;-86
2021/06/01 07:20:44;;;;;;;12.68;7.10;;;17.20;77.80;;;;;;5016504;28;20174;-86
2021/06/01 07:23:10;;;;;;;10.07;7.65;;;17.20;74.40;;;;;;5034295;28;20165;-87
2021/06/01 07:25:36;;;;;;;9.88;6.15;;;17.40;72.80;;;;;;5016450;28;20174;-86
2021/06/01 07:28:02;;;;;;;11.02;6.60;;;17.60;67.20;;;;;;5016373;28;20192;-86
2021/06/01 07:30:29;;;;;;;10.05;7.32;;;17.70;67.60;;;;;;5016306;28;20204;-86
2021/06/01 07:32:54;;;;;;;6.85;5.90;;;17.80;69.30;;;;;;5033965;28;20255;-87
2021/06/01 07:35:21;;;;;;;5.88;5.32;;;17.90;69.60;;;;;;5016340;28;20264;-87
2021/06/01 07:37:48;;;;;;;10.25;4.72;;;18.00;66.80;;;;;;5016109;28;20288;-86
2021/06/01 07:40:14;;;;;;;9.82;4.13;;;18.20;63.50;;;;;;5033884;28;20216;-85
2021/06/01 07:42:40;;;;;;;6.25;4.15;;;18.20;59.20;;;;;;5033881;28;20625;-87
2021/06/01 07:45:06;;;;;;;4.80;3.13;;;18.30;61.00;;;;;;5033871;28;20264;-86
2021/06/01 07:47:32;;;;;;;4.95;3.03;;;18.40;54.20;;;;;;5033664;28;20201;-86
2021/06/01 07:49:58;;;;;;;5.95;3.42;;;18.60;56.60;;;;;;5033763;28;20186;-87
2021/06/01 07:52:24;;;;;;;6.53;3.60;;;18.70;56.40;;;;;;5016020;28;20186;-86
2021/06/01 07:54:50;;;;;;;4.45;3.03;;;18.90;57.80;;;;;;5015969;28;20257;-86
2021/06/01 07:57:16;;;;;;;3.45;2.80;;;18.90;52.30;;;;;;5015750;28;20209;-87
2021/06/01 07:59:42;;;;;;;4.78;3.25;;;19.00;54.20;;;;;;5015687;28;20236;-87
2021/06/01 08:02:07;;;;;;;3.33;2.88;;;19.00;53.30;;;;;;5033631;28;20177;-87
2021/06/01 08:04:33;;;;;;;4.90;3.20;;;19.00;49.60;;;;;;5015867;28;20278;-86
2021/06/01 08:07:05;;;;;;;6.72;3.00;;;19.10;54.50;;;;;;5015797;28;20232;-87
2021/06/01 08:09:30;;;;;;;3.75;2.70;;;19.20;52.90;;;;;;5015748;28;20242;-86
2021/06/01 08:11:56;;;;;;;5.22;2.95;;;19.20;52.90;;;;;;5033415;28;20193;-87
2021/06/01 08:14:21;;;;;;;4.18;2.83;;;19.30;52.30;;;;;;5033441;28;20193;-86
2021/06/01 08:16:47;;;;;;;4.88;3.10;;;19.40;49.60;;;;;;5015719;28;20211;-86
2021/06/01 08:19:19;;;;;;;3.92;3.10;;;19.40;50.00;;;;;;5033132;28;20231;-87
2021/06/01 08:21:56;;;;;;;4.47;2.78;;;19.40;52.70;;;;;;5015623;28;20192;-86
2021/06/01 08:24:22;;;;;;;5.53;2.80;;;19.60;48.90;;;;;;5015606;28;20628;-86
2021/06/01 08:26:49;;;;;;;4.03;3.03;;;19.60;49.40;;;;;;5015573;28;20177;-87
2021/06/01 08:29:15;;;;;;;10.60;3.20;;;19.60;47.60;;;;;;5015506;28;20205;-86
2021/06/01 08:31:45;;;;;;;7.28;3.38;;;19.60;51.90;;;;;;5033366;28;20218;-87
2021/06/01 08:34:11;;;;;;;5.57;3.17;;;19.70;51.00;;;;;;5015478;28;20181;-87
2021/06/01 08:36:37;;;;;;;3.33;2.78;;;19.70;49.40;;;;;;5033150;28;20172;-87
2021/06/01 08:39:05;;;;;;;7.55;3.58;;;19.70;49.30;;;;;;5015287;28;20221;-86
2021/06/01 08:41:32;;;;;;;5.25;2.85;;;19.70;51.60;;;;;;5033141;28;20551;-87
2021/06/01 08:44:00;;;;;;;4.82;3.08;;;19.70;52.50;;;;;;5033175;28;20231;-86
2021/06/01 08:46:27;;;;;;;6.85;2.85;;;19.80;48.30;;;;;;5015237;28;20272;-87
2021/06/01 08:48:57;;;;;;;4.15;3.03;;;19.90;47.30;;;;;;5015223;28;20216;-86
2021/06/01 08:51:24;;;;;;;9.30;3.63;;;20.00;47.20;;;;;;5033410;28;20188;-87
2021/06/01 08:53:51;;;;;;;4.85;3.13;;;20.00;50.20;;;;;;5015235;28;20243;-87
2021/06/01 08:56:18;;;;;;;6.70;2.97;;;20.20;48.70;;;;;;5032912;28;20657;-87
2021/06/01 08:58:45;;;;;;;8.32;2.85;;;20.20;46.90;;;;;;5032833;28;20213;-87
2021/06/01 09:01:11;;;;;;;4.50;3.40;;;20.20;47.30;;;;;;5015173;28;20215;-87
2021/06/01 09:03:43;;;;;;;6.28;3.17;;;20.20;47.50;;;;;;5015200;28;20188;-87
2021/06/01 09:22:34;;;;;;;9.88;3.95;;;21.20;48.70;;;;;;4992642;28;20185;-88
2021/06/01 09:25:13;;;;;;;5.10;3.22;;;21.30;47.90;;;;;;5036490;28;20170;-87
2021/06/01 09:27:45;;;;;;;5.07;3.45;;;21.30;49.90;;;;;;5018734;28;20208;-87
2021/06/01 09:30:30;;;;;;;4.38;2.65;;;21.30;49.20;;;;;;5036396;28;20173;-87
2021/06/01 09:32:56;;;;;;;5.70;3.13;;;21.50;47.50;;;;;;5018720;28;20170;-88
2021/06/01 09:35:21;;;;;;;5.65;3.38;;;21.50;47.60;;;;;;5036228;28;20200;-87
2021/06/01 09:37:47;;;;;;;7.43;3.70;;;21.60;48.80;;;;;;5018491;28;20198;-87
2021/06/01 09:40:19;;;;;;;6.50;3.22;;;21.90;49.40;;;;;;5036502;28;20197;-86
2021/06/01 09:42:50;;;;;;;9.32;3.22;;;22.10;43.40;;;;;;5036217;28;20162;-87
2021/06/01 09:45:19;;;;;;;3.53;2.83;;;22.20;46.40;;;;;;5018366;28;20178;-87
2021/06/01 09:47:48;;;;;;;5.28;3.20;;;22.40;46.00;;;;;;5036001;28;20201;-86
2021/06/01 09:52:48;;;;;;;5.82;3.17;;;22.50;45.00;;;;;;5036431;28;20170;-87
2021/06/01 09:55:17;;;;;;;10.88;3.70;;;22.60;42.80;;;;;;5018222;28;20567;-87
2021/06/01 09:57:45;;;;;;;5.03;3.15;;;22.50;44.50;;;;;;5018081;28;20225;-86
2021/06/01 10:00:12;;;;;;;10.70;3.72;;;22.30;46.30;;;;;;5018107;28;20185;-86
2021/06/01 10:02:39;;;;;;;6.72;3.83;;;22.30;44.00;;;;;;5035844;28;20185;-87
2021/06/01 10:05:13;;;;;;;5.38;3.53;;;22.40;45.90;;;;;;5035660;28;20189;-87
2021/06/01 10:07:42;;;;;;;7.60;3.67;;;22.90;45.80;;;;;;5035612;28;20248;-87
2021/06/01 10:10:31;;;;;;;5.07;3.28;;;23.20;45.10;;;;;;5035658;28;20182;-86
2021/06/01 10:13:01;;;;;;;8.02;3.50;;;23.60;45.90;;;;;;5035599;28;20512;-86
2021/06/01 10:15:30;;;;;;;4.43;2.92;;;23.90;43.20;;;;;;5035620;28;20169;-86
2021/06/01 10:17:56;;;;;;;4.18;2.97;;;23.20;42.00;;;;;;5017642;28;20221;-87
2021/06/01 10:20:24;;;;;;;5.95;2.95;;;23.20;45.60;;;;;;5035603;28;20741;-87
2021/06/01 10:22:50;;;;;;;10.20;3.72;;;23.10;44.30;;;;;;5035377;28;20268;-87
2021/06/01 10:25:17;;;;;;;7.72;3.35;;;23.40;45.50;;;;;;5035371;28;20188;-86
2021/06/01 10:27:44;;;;;;;11.20;3.00;;;24.10;41.70;;;;;;5035353;28;20201;-87
2021/06/01 10:30:11;;;;;;;4.80;3.13;;;24.30;43.70;;;;;;5035441;28;20177;-86
2021/06/01 10:32:40;;;;;;;5.45;3.60;;;24.30;40.60;;;;;;5035283;28;20178;-86
2021/06/01 10:35:10;;;;;;;9.20;3.17;;;24.00;40.60;;;;;;5035057;28;20192;-86
2021/06/01 10:51:56;;;;;;;6.28;3.70;;;24.60;42.40;;;;;;5035977;28;20183;-86
2021/06/01 10:54:51;;;;;;;5.75;3.08;;;24.60;42.80;;;;;;5034874;28;20173;-86
2021/06/01 10:57:21;;;;;;;5.90;3.80;;;24.90;41.60;;;;;;5027325;28;20208;-86
2021/06/01 11:02:28;;;;;;;7.47;3.88;;;25.20;40.10;;;;;;5034813;28;20153;-86
2021/06/01 11:05:12;;;;;;;7.45;3.70;;;25.10;42.30;;;;;;5016630;28;20208;-86
2021/06/01 11:08:14;;;;;;;7.32;3.90;;;25.30;42.20;;;;;;5034355;28;20188;-85
2021/06/01 11:10:47;;;;;;;7.88;3.25;;;24.40;43.90;;;;;;5034672;28;20640;-86
2021/06/01 11:13:18;;;;;;;7.95;3.60;;;24.90;42.60;;;;;;5016701;28;20258;-86
2021/06/01 11:15:55;;;;;;;5.95;3.45;;;25.20;42.70;;;;;;5016726;28;20652;-86
2021/06/01 11:18:26;;;;;;;7.72;3.60;;;24.80;44.20;;;;;;5057992;23;20228;-91
2021/06/01 11:32:53;;;;;;;10.23;3.97;;;25.70;42.70;;;;;;5033770;28;20576;-88
2021/06/01 11:35:30;;;;;;;5.30;3.83;;;26.10;39.10;;;;;;5034265;28;20156;-88
2021/06/01 11:38:06;;;;;;;5.18;3.53;;;26.10;38.60;;;;;;5016426;28;20176;-88
2021/06/01 11:43:05;;;;;;;7.55;4.53;;;25.70;38.70;;;;;;5034357;28;20172;-88
2021/06/01 11:45:48;;;;;;;11.40;5.25;;;25.50;40.90;;;;;;5016397;28;20173;-89
2021/06/01 11:51:00;;;;;;;7.13;5.15;;;25.40;42.60;;;;;;5034192;28;20182;-89
2021/06/01 11:53:25;;;;;;;9.13;5.20;;;25.40;44.10;;;;;;5033939;28;20574;-90
2021/06/01 11:56:00;;;;;;;8.02;5.07;;;25.60;43.60;;;;;;5016815;28;20208;-90
2021/06/01 12:04:04;;;;;;;9.80;5.93;;;25.90;42.90;;;;;;5035417;28;20644;-90
2021/06/01 12:12:43;;;;;;;7.82;4.20;;;26.10;42.70;;;;;;5011464;28;20218;-90
2021/06/01 12:18:23;;;;;;;11.68;6.93;;;26.60;41.70;;;;;;5034883;28;20234;-91
2021/06/01 12:20:50;;;;;;;7.53;5.60;;;26.40;40.60;;;;;;5016529;28;20267;-91
2021/06/01 12:23:34;;;;;;;8.77;5.53;;;25.80;40.00;;;;;;5015774;28;20172;-86
2021/06/01 12:31:51;;;;;;;11.98;6.47;;;26.40;43.00;;;;;;5033764;28;20164;-85
2021/06/01 12:34:26;;;;;;;7.60;5.00;;;26.10;43.80;;;;;;5033196;28;20279;-85
2021/06/01 12:45:01;;;;;;;9.43;6.05;;;26.00;40.00;;;;;;5034092;28;20519;-89
2021/06/01 13:05:16;;;;;;;7.68;5.72;;;25.80;42.30;;;;;;5020337;28;20230;-89
2021/06/01 13:20:31;;;;;;;11.30;5.10;;;25.20;44.30;;;;;;5037704;28;20192;-90
2021/06/01 13:23:30;;;;;;;7.18;4.93;;;25.10;45.00;;;;;;5019248;28;20173;-90
2021/06/01 13:40:22;;;;;;;4.68;3.70;;;25.60;44.60;;;;;;5036653;28;20207;-90
2021/06/01 13:46:02;;;;;;;6.82;4.03;;;26.10;43.60;;;;;;5013154;28;20648;-90
2021/06/01 13:56:13;;;;;;;5.75;3.83;;;26.20;42.60;;;;;;5035960;28;20172;-90
2021/06/01 14:09:52;;;;;;;6.80;4.13;;;25.60;44.50;;;;;;5036128;28;20207;-89
2021/06/01 14:21:12;;;;;;;4.40;3.15;;;25.40;45.30;;;;;;5036191;28;20160;-89
2021/06/01 15:50:40;;;;;;;5.18;3.60;;;24.70;49.30;;;;;;5034144;28;20251;-89
2021/06/01 16:21:25;;;;;;;8.48;3.50;;;22.80;51.40;;;;;;5034038;28;20188;-90
2021/06/01 17:08:17;;;;;;;3.20;2.00;;;20.00;52.40;;;;;;5032784;28;20245;-88
2021/06/01 17:13:14;;;;;;;2.85;2.15;;;19.60;52.40;;;;;;5033270;28;20252;-89
2021/06/01 17:15:41;;;;;;;3.92;2.10;;;19.50;53.20;;;;;;5015220;28;20644;-88
2021/06/01 17:18:18;;;;;;;2.03;1.73;;;19.30;52.40;;;;;;5032408;28;20211;-87
2021/06/01 17:36:57;;;;;;;3.90;1.90;;;18.70;50.10;;;;;;5036902;28;20178;-86
2021/06/01 17:39:23;;;;;;;5.70;1.83;;;18.70;50.40;;;;;;5036083;28;20201;-87
2021/06/01 17:41:52;;;;;;;3.55;1.80;;;18.70;51.70;;;;;;5018482;28;20172;-86
2021/06/01 17:44:23;;;;;;;4.10;1.80;;;18.50;52.70;;;;;;5018470;28;20173;-86
2021/06/01 17:46:50;;;;;;;4.22;1.63;;;18.50;53.20;;;;;;5036183;28;20157;-87
2021/06/01 17:49:22;;;;;;;4.47;1.75;;;18.40;52.90;;;;;;5018273;28;20207;-86
2021/06/01 17:51:52;;;;;;;2.20;1.42;;;18.30;50.00;;;;;;5018280;28;20176;-86
2021/06/01 17:54:30;;;;;;;3.58;1.60;;;18.30;46.20;;;;;;5018283;28;20248;-86
2021/06/01 17:56:57;;;;;;;2.70;1.30;;;18.20;45.80;;;;;;5018209;28;20272;-86
2021/06/01 17:59:25;;;;;;;2.63;1.40;;;18.00;45.90;;;;;;5017878;28;20204;-86
2021/06/01 18:01:52;;;;;;;2.50;1.40;;;18.00;46.70;;;;;;5035739;28;20645;-86
2021/06/01 18:04:20;;;;;;;3.75;1.40;;;17.80;48.60;;;;;;5035681;28;20239;-86
2021/06/01 18:07:24;;;;;;;6.55;1.20;;;17.70;49.20;;;;;;5017910;28;20176;-86
2021/06/01 18:43:05;;;;;;;1.70;1.20;;;16.80;54.30;;;;;;5034969;28;20156;-86
2021/06/01 19:28:59;;;;;;;2.63;1.30;;;15.70;57.00;;;;;;5034406;28;20603;-85
2021/06/01 19:50:34;;;;;;;2.17;1.60;;;15.40;61.10;;;;;;5034189;28;20215;-85
2021/06/01 19:53:01;;;;;;;2.13;1.60;;;15.40;60.40;;;;;;5016248;28;20267;-86
2021/06/01 19:55:28;;;;;;;2.70;1.80;;;15.40;60.00;;;;;;5015654;28;20188;-86
2021/06/01 19:57:55;;;;;;;1.93;1.50;;;15.40;60.70;;;;;;5033634;28;20173;-87
2021/06/01 20:00:23;;;;;;;2.50;2.03;;;15.30;60.50;;;;;;5033662;28;20216;-87
2021/06/01 20:02:49;;;;;;;2.00;1.80;;;15.30;60.90;;;;;;5033582;28;20204;-86
2021/06/01 20:05:17;;;;;;;3.50;1.77;;;15.30;60.80;;;;;;5016020;28;20180;-87
2021/06/01 20:07:44;;;;;;;2.90;1.80;;;15.30;61.40;;;;;;5015986;28;20264;-87